sensor_id;sensor_type;location;lat;lon;timestamp;P1;durP1;ratioP1;P2;durP2;ratioP2
15929;SDS011;8064;51.142;4.780;2024-03-08T00:01:59;26.53;;;17.63;;
15929;SDS011;8064;51.142;4.780;2024-03-08T00:04:25;26.20;;;16.67;;
15929;SDS011;8064;51.142;4.780;2024-03-08T00:06:51;26.13;;;15.93;;
15929;SDS011;8064;51.142;4.780;2024-03-08T00:09:17;26.10;;;15.70;;
15929;SDS011;8064;51.142;4.780;2024-03-08T00:11:43;28.27;;;16.37;;
15929;SDS011;8064;51.142;4.780;2024-03-08T00:14:08;24.67;;;15.93;;
15929;SDS011;8064;51.142;4.780;2024-03-08T00:16:34;23.10;;;14.93;;
15929;SDS011;8064;51.142;4.780;2024-03-08T00:19:00;21.73;;;15.33;;
15929;SDS011;8064;51.142;4.780;2024-03-08T00:21:26;26.13;;;15.87;;
15929;SDS011;8064;51.142;4.780;2024-03-08T00:23:52;23.70;;;14.40;;
15929;SDS011;8064;51.142;4.780;2024-03-08T00:26:20;25.90;;;15.37;;
15929;SDS011;8064;51.142;4.780;2024-03-08T00:28:47;22.77;;;15.60;;
15929;SDS011;8064;51.142;4.780;2024-03-08T00:31:14;22.83;;;14.73;;
15929;SDS011;8064;51.142;4.780;2024-03-08T00:33:42;21.90;;;14.63;;
15929;SDS011;8064;51.142;4.780;2024-03-08T00:36:08;22.83;;;14.67;;
15929;SDS011;8064;51.142;4.780;2024-03-08T00:38:33;21.27;;;15.13;;
15929;SDS011;8064;51.142;4.780;2024-03-08T00:40:59;23.37;;;15.20;;
15929;SDS011;8064;51.142;4.780;2024-03-08T00:43:25;24.33;;;15.00;;
15929;SDS011;8064;51.142;4.780;2024-03-08T00:45:51;19.40;;;14.13;;
15929;SDS011;8064;51.142;4.780;2024-03-08T00:48:17;20.90;;;14.30;;
15929;SDS011;8064;51.142;4.780;2024-03-08T00:50:43;24.80;;;14.97;;
15929;SDS011;8064;51.142;4.780;2024-03-08T00:53:11;21.17;;;14.67;;
15929;SDS011;8064;51.142;4.780;2024-03-08T00:55:37;19.50;;;13.73;;
15929;SDS011;8064;51.142;4.780;2024-03-08T00:58:04;22.17;;;14.27;;
15929;SDS011;8064;51.142;4.780;2024-03-08T01:00:30;21.63;;;14.37;;
15929;SDS011;8064;51.142;4.780;2024-03-08T01:02:55;22.47;;;14.33;;
15929;SDS011;8064;51.142;4.780;2024-03-08T01:05:22;19.00;;;13.77;;
15929;SDS011;8064;51.142;4.780;2024-03-08T01:07:49;19.47;;;13.33;;
15929;SDS011;8064;51.142;4.780;2024-03-08T01:10:15;19.73;;;14.13;;
15929;SDS011;8064;51.142;4.780;2024-03-08T01:12:41;21.10;;;14.20;;
15929;SDS011;8064;51.142;4.780;2024-03-08T01:15:08;20.73;;;14.57;;
15929;SDS011;8064;51.142;4.780;2024-03-08T01:17:35;19.80;;;14.17;;
15929;SDS011;8064;51.142;4.780;2024-03-08T01:20:02;21.80;;;14.20;;
15929;SDS011;8064;51.142;4.780;2024-03-08T01:22:28;19.60;;;14.77;;
15929;SDS011;8064;51.142;4.780;2024-03-08T01:24:55;17.50;;;13.13;;
15929;SDS011;8064;51.142;4.780;2024-03-08T01:27:21;19.60;;;13.53;;
15929;SDS011;8064;51.142;4.780;2024-03-08T01:29:47;23.17;;;14.23;;
15929;SDS011;8064;51.142;4.780;2024-03-08T01:32:13;19.63;;;14.20;;
15929;SDS011;8064;51.142;4.780;2024-03-08T01:34:39;20.97;;;12.90;;
15929;SDS011;8064;51.142;4.780;2024-03-08T01:37:05;20.10;;;14.33;;
15929;SDS011;8064;51.142;4.780;2024-03-08T01:39:31;20.20;;;13.53;;
15929;SDS011;8064;51.142;4.780;2024-03-08T01:41:58;19.63;;;13.97;;
15929;SDS011;8064;51.142;4.780;2024-03-08T01:44:23;16.53;;;13.17;;
15929;SDS011;8064;51.142;4.780;2024-03-08T01:46:50;19.43;;;13.00;;
15929;SDS011;8064;51.142;4.780;2024-03-08T01:49:18;17.03;;;13.53;;
15929;SDS011;8064;51.142;4.780;2024-03-08T01:51:46;16.97;;;12.67;;
15929;SDS011;8064;51.142;4.780;2024-03-08T01:54:13;19.27;;;13.60;;
15929;SDS011;8064;51.142;4.780;2024-03-08T01:56:41;18.60;;;13.37;;
15929;SDS011;8064;51.142;4.780;2024-03-08T01:59:08;19.10;;;13.20;;
15929;SDS011;8064;51.142;4.780;2024-03-08T02:01:34;21.03;;;13.70;;
15929;SDS011;8064;51.142;4.780;2024-03-08T02:04:00;17.13;;;12.97;;
15929;SDS011;8064;51.142;4.780;2024-03-08T02:06:26;19.60;;;12.03;;
15929;SDS011;8064;51.142;4.780;2024-03-08T02:08:52;17.37;;;13.40;;
15929;SDS011;8064;51.142;4.780;2024-03-08T02:11:18;17.33;;;13.07;;
15929;SDS011;8064;51.142;4.780;2024-03-08T02:13:45;17.87;;;12.93;;
15929;SDS011;8064;51.142;4.780;2024-03-08T02:16:11;17.33;;;12.97;;
15929;SDS011;8064;51.142;4.780;2024-03-08T02:18:37;19.03;;;13.00;;
15929;SDS011;8064;51.142;4.780;2024-03-08T02:21:04;18.97;;;12.97;;
15929;SDS011;8064;51.142;4.780;2024-03-08T02:23:31;20.83;;;14.00;;
15929;SDS011;8064;51.142;4.780;2024-03-08T02:25:58;16.53;;;12.63;;
15929;SDS011;8064;51.142;4.780;2024-03-08T02:28:24;14.93;;;12.60;;
15929;SDS011;8064;51.142;4.780;2024-03-08T02:30:50;17.83;;;12.87;;
15929;SDS011;8064;51.142;4.780;2024-03-08T02:33:16;19.23;;;12.97;;
15929;SDS011;8064;51.142;4.780;2024-03-08T02:35:43;16.97;;;12.93;;
15929;SDS011;8064;51.142;4.780;2024-03-08T02:38:11;17.97;;;12.43;;
15929;SDS011;8064;51.142;4.780;2024-03-08T02:40:41;16.87;;;13.00;;
15929;SDS011;8064;51.142;4.780;2024-03-08T02:43:08;17.50;;;12.47;;
15929;SDS011;8064;51.142;4.780;2024-03-08T02:45:35;18.47;;;13.60;;
15929;SDS011;8064;51.142;4.780;2024-03-08T02:48:01;17.67;;;13.03;;
15929;SDS011;8064;51.142;4.780;2024-03-08T02:50:27;17.77;;;12.63;;
15929;SDS011;8064;51.142;4.780;2024-03-08T02:52:53;17.20;;;12.93;;
15929;SDS011;8064;51.142;4.780;2024-03-08T02:55:19;16.67;;;13.37;;
15929;SDS011;8064;51.142;4.780;2024-03-08T02:57:45;16.50;;;12.47;;
15929;SDS011;8064;51.142;4.780;2024-03-08T03:00:13;16.63;;;13.53;;
15929;SDS011;8064;51.142;4.780;2024-03-08T03:02:40;17.07;;;13.20;;
15929;SDS011;8064;51.142;4.780;2024-03-08T03:05:07;16.50;;;12.67;;
15929;SDS011;8064;51.142;4.780;2024-03-08T03:07:35;18.50;;;13.07;;
15929;SDS011;8064;51.142;4.780;2024-03-08T03:10:01;15.87;;;12.77;;
15929;SDS011;8064;51.142;4.780;2024-03-08T03:12:27;17.33;;;12.43;;
15929;SDS011;8064;51.142;4.780;2024-03-08T03:14:54;17.10;;;12.27;;
15929;SDS011;8064;51.142;4.780;2024-03-08T03:17:22;18.20;;;12.90;;
15929;SDS011;8064;51.142;4.780;2024-03-08T03:19:48;17.27;;;12.93;;
15929;SDS011;8064;51.142;4.780;2024-03-08T03:22:14;17.90;;;13.13;;
15929;SDS011;8064;51.142;4.780;2024-03-08T03:24:40;16.00;;;13.23;;
15929;SDS011;8064;51.142;4.780;2024-03-08T03:27:07;20.90;;;13.10;;
15929;SDS011;8064;51.142;4.780;2024-03-08T03:29:40;17.37;;;13.17;;
15929;SDS011;8064;51.142;4.780;2024-03-08T03:32:11;18.83;;;13.73;;
15929;SDS011;8064;51.142;4.780;2024-03-08T03:34:37;17.73;;;13.07;;
15929;SDS011;8064;51.142;4.780;2024-03-08T03:37:03;18.90;;;14.53;;
15929;SDS011;8064;51.142;4.780;2024-03-08T03:39:30;18.30;;;13.27;;
15929;SDS011;8064;51.142;4.780;2024-03-08T03:41:57;17.03;;;13.50;;
15929;SDS011;8064;51.142;4.780;2024-03-08T03:44:23;19.27;;;14.20;;
15929;SDS011;8064;51.142;4.780;2024-03-08T03:46:49;17.90;;;13.77;;
15929;SDS011;8064;51.142;4.780;2024-03-08T03:49:17;18.13;;;13.53;;
15929;SDS011;8064;51.142;4.780;2024-03-08T03:51:42;18.70;;;13.70;;
15929;SDS011;8064;51.142;4.780;2024-03-08T03:54:09;17.47;;;13.63;;
15929;SDS011;8064;51.142;4.780;2024-03-08T03:56:35;19.27;;;14.20;;
15929;SDS011;8064;51.142;4.780;2024-03-08T03:59:01;20.73;;;14.43;;
15929;SDS011;8064;51.142;4.780;2024-03-08T04:01:27;18.97;;;13.67;;
15929;SDS011;8064;51.142;4.780;2024-03-08T04:03:54;18.60;;;13.70;;
15929;SDS011;8064;51.142;4.780;2024-03-08T04:06:20;18.17;;;13.37;;
15929;SDS011;8064;51.142;4.780;2024-03-08T04:08:47;17.97;;;13.50;;
15929;SDS011;8064;51.142;4.780;2024-03-08T04:11:13;18.03;;;13.40;;
15929;SDS011;8064;51.142;4.780;2024-03-08T04:13:41;17.57;;;13.73;;
15929;SDS011;8064;51.142;4.780;2024-03-08T04:16:07;17.23;;;13.40;;
15929;SDS011;8064;51.142;4.780;2024-03-08T04:18:33;20.10;;;13.20;;
15929;SDS011;8064;51.142;4.780;2024-03-08T04:21:01;17.33;;;13.17;;
15929;SDS011;8064;51.142;4.780;2024-03-08T04:23:27;19.30;;;14.03;;
15929;SDS011;8064;51.142;4.780;2024-03-08T04:25:53;19.13;;;13.73;;
15929;SDS011;8064;51.142;4.780;2024-03-08T04:28:19;18.90;;;13.30;;
15929;SDS011;8064;51.142;4.780;2024-03-08T04:30:45;16.67;;;13.10;;
15929;SDS011;8064;51.142;4.780;2024-03-08T04:33:11;19.63;;;13.67;;
15929;SDS011;8064;51.142;4.780;2024-03-08T04:35:37;17.63;;;13.57;;
15929;SDS011;8064;51.142;4.780;2024-03-08T04:38:02;17.60;;;13.40;;
15929;SDS011;8064;51.142;4.780;2024-03-08T04:40:30;19.30;;;13.60;;
15929;SDS011;8064;51.142;4.780;2024-03-08T04:42:56;18.57;;;13.97;;
15929;SDS011;8064;51.142;4.780;2024-03-08T04:45:24;20.70;;;14.77;;
15929;SDS011;8064;51.142;4.780;2024-03-08T04:47:51;18.13;;;13.27;;
15929;SDS011;8064;51.142;4.780;2024-03-08T04:50:17;20.90;;;13.87;;
15929;SDS011;8064;51.142;4.780;2024-03-08T04:52:43;20.07;;;13.63;;
15929;SDS011;8064;51.142;4.780;2024-03-08T04:55:09;18.13;;;13.87;;
15929;SDS011;8064;51.142;4.780;2024-03-08T04:57:35;21.17;;;14.47;;
15929;SDS011;8064;51.142;4.780;2024-03-08T05:00:02;16.73;;;12.97;;
15929;SDS011;8064;51.142;4.780;2024-03-08T05:02:32;21.70;;;14.67;;
15929;SDS011;8064;51.142;4.780;2024-03-08T05:04:58;17.30;;;13.60;;
15929;SDS011;8064;51.142;4.780;2024-03-08T05:07:24;20.70;;;14.23;;
15929;SDS011;8064;51.142;4.780;2024-03-08T05:09:50;20.60;;;14.27;;
15929;SDS011;8064;51.142;4.780;2024-03-08T05:12:17;18.87;;;14.13;;
15929;SDS011;8064;51.142;4.780;2024-03-08T05:14:45;19.60;;;14.33;;
15929;SDS011;8064;51.142;4.780;2024-03-08T05:17:14;21.07;;;14.53;;
15929;SDS011;8064;51.142;4.780;2024-03-08T05:19:40;20.33;;;14.40;;
15929;SDS011;8064;51.142;4.780;2024-03-08T05:22:06;17.30;;;14.03;;
15929;SDS011;8064;51.142;4.780;2024-03-08T05:24:32;18.60;;;13.20;;
15929;SDS011;8064;51.142;4.780;2024-03-08T05:26:58;18.43;;;14.00;;
15929;SDS011;8064;51.142;4.780;2024-03-08T05:29:25;19.10;;;14.30;;
15929;SDS011;8064;51.142;4.780;2024-03-08T05:31:51;19.20;;;14.27;;
15929;SDS011;8064;51.142;4.780;2024-03-08T05:34:17;19.10;;;13.63;;
15929;SDS011;8064;51.142;4.780;2024-03-08T05:36:44;20.37;;;15.17;;
15929;SDS011;8064;51.142;4.780;2024-03-08T05:39:13;18.33;;;13.57;;
15929;SDS011;8064;51.142;4.780;2024-03-08T05:41:39;18.07;;;13.20;;
15929;SDS011;8064;51.142;4.780;2024-03-08T05:44:05;19.23;;;13.70;;
15929;SDS011;8064;51.142;4.780;2024-03-08T05:46:31;20.97;;;14.97;;
15929;SDS011;8064;51.142;4.780;2024-03-08T05:48:57;18.63;;;13.67;;
15929;SDS011;8064;51.142;4.780;2024-03-08T05:51:24;17.53;;;14.13;;
15929;SDS011;8064;51.142;4.780;2024-03-08T05:53:52;22.57;;;14.53;;
15929;SDS011;8064;51.142;4.780;2024-03-08T05:56:20;19.17;;;14.23;;
15929;SDS011;8064;51.142;4.780;2024-03-08T05:58:48;17.80;;;13.87;;
15929;SDS011;8064;51.142;4.780;2024-03-08T06:01:15;21.93;;;14.43;;
15929;SDS011;8064;51.142;4.780;2024-03-08T06:03:41;21.73;;;14.50;;
15929;SDS011;8064;51.142;4.780;2024-03-08T06:06:12;20.70;;;13.93;;
15929;SDS011;8064;51.142;4.780;2024-03-08T06:08:38;21.47;;;14.67;;
15929;SDS011;8064;51.142;4.780;2024-03-08T06:11:03;30.40;;;14.57;;
15929;SDS011;8064;51.142;4.780;2024-03-08T06:13:31;19.63;;;14.90;;
15929;SDS011;8064;51.142;4.780;2024-03-08T06:15:57;19.43;;;14.17;;
15929;SDS011;8064;51.142;4.780;2024-03-08T06:18:22;21.70;;;14.17;;
15929;SDS011;8064;51.142;4.780;2024-03-08T06:20:48;24.73;;;13.97;;
15929;SDS011;8064;51.142;4.780;2024-03-08T06:23:14;18.37;;;14.67;;
15929;SDS011;8064;51.142;4.780;2024-03-08T06:25:46;21.57;;;14.70;;
15929;SDS011;8064;51.142;4.780;2024-03-08T06:28:12;19.00;;;14.57;;
15929;SDS011;8064;51.142;4.780;2024-03-08T06:30:39;19.00;;;13.60;;
15929;SDS011;8064;51.142;4.780;2024-03-08T06:33:05;20.97;;;14.40;;
15929;SDS011;8064;51.142;4.780;2024-03-08T06:35:32;18.97;;;14.10;;
15929;SDS011;8064;51.142;4.780;2024-03-08T06:37:58;18.53;;;13.87;;
15929;SDS011;8064;51.142;4.780;2024-03-08T06:40:24;24.27;;;15.63;;
15929;SDS011;8064;51.142;4.780;2024-03-08T06:42:49;20.40;;;15.30;;
15929;SDS011;8064;51.142;4.780;2024-03-08T06:45:17;18.37;;;13.67;;
15929;SDS011;8064;51.142;4.780;2024-03-08T06:47:46;19.30;;;14.40;;
15929;SDS011;8064;51.142;4.780;2024-03-08T06:50:12;19.37;;;14.53;;
15929;SDS011;8064;51.142;4.780;2024-03-08T06:52:37;23.13;;;15.20;;
15929;SDS011;8064;51.142;4.780;2024-03-08T06:55:04;18.67;;;14.40;;
15929;SDS011;8064;51.142;4.780;2024-03-08T06:57:30;19.13;;;14.50;;
15929;SDS011;8064;51.142;4.780;2024-03-08T06:59:57;20.47;;;14.13;;
15929;SDS011;8064;51.142;4.780;2024-03-08T07:02:23;21.13;;;14.80;;
15929;SDS011;8064;51.142;4.780;2024-03-08T07:04:50;21.70;;;14.90;;
15929;SDS011;8064;51.142;4.780;2024-03-08T07:07:17;20.93;;;14.53;;
15929;SDS011;8064;51.142;4.780;2024-03-08T07:09:45;21.07;;;14.33;;
15929;SDS011;8064;51.142;4.780;2024-03-08T07:12:11;17.70;;;13.60;;
15929;SDS011;8064;51.142;4.780;2024-03-08T07:14:38;19.80;;;14.57;;
15929;SDS011;8064;51.142;4.780;2024-03-08T07:17:06;21.50;;;15.50;;
15929;SDS011;8064;51.142;4.780;2024-03-08T07:19:34;21.17;;;14.03;;
15929;SDS011;8064;51.142;4.780;2024-03-08T07:22:01;19.60;;;13.63;;
15929;SDS011;8064;51.142;4.780;2024-03-08T07:24:28;18.37;;;13.57;;
15929;SDS011;8064;51.142;4.780;2024-03-08T07:27:04;20.67;;;13.60;;
15929;SDS011;8064;51.142;4.780;2024-03-08T07:29:31;18.90;;;14.80;;
15929;SDS011;8064;51.142;4.780;2024-03-08T07:31:59;20.30;;;13.50;;
15929;SDS011;8064;51.142;4.780;2024-03-08T07:34:26;17.97;;;13.33;;
15929;SDS011;8064;51.142;4.780;2024-03-08T07:36:51;17.70;;;13.33;;
15929;SDS011;8064;51.142;4.780;2024-03-08T07:39:17;17.93;;;13.73;;
15929;SDS011;8064;51.142;4.780;2024-03-08T07:41:44;17.73;;;14.10;;
15929;SDS011;8064;51.142;4.780;2024-03-08T07:44:09;17.53;;;13.10;;
15929;SDS011;8064;51.142;4.780;2024-03-08T07:46:35;22.30;;;14.20;;
15929;SDS011;8064;51.142;4.780;2024-03-08T07:49:02;19.97;;;13.47;;
15929;SDS011;8064;51.142;4.780;2024-03-08T07:51:28;19.23;;;14.03;;
15929;SDS011;8064;51.142;4.780;2024-03-08T07:53:54;19.67;;;14.37;;
15929;SDS011;8064;51.142;4.780;2024-03-08T07:56:23;17.77;;;13.80;;
15929;SDS011;8064;51.142;4.780;2024-03-08T07:58:50;19.70;;;14.27;;
15929;SDS011;8064;51.142;4.780;2024-03-08T08:01:16;18.80;;;13.33;;
15929;SDS011;8064;51.142;4.780;2024-03-08T08:03:43;21.20;;;14.33;;
15929;SDS011;8064;51.142;4.780;2024-03-08T08:06:09;17.00;;;13.13;;
15929;SDS011;8064;51.142;4.780;2024-03-08T08:08:35;18.07;;;13.67;;
15929;SDS011;8064;51.142;4.780;2024-03-08T08:11:01;18.17;;;13.30;;
15929;SDS011;8064;51.142;4.780;2024-03-08T08:13:27;16.97;;;12.73;;
15929;SDS011;8064;51.142;4.780;2024-03-08T08:15:57;18.40;;;13.50;;
15929;SDS011;8064;51.142;4.780;2024-03-08T08:18:23;17.23;;;13.57;;
15929;SDS011;8064;51.142;4.780;2024-03-08T08:20:50;17.37;;;13.10;;
15929;SDS011;8064;51.142;4.780;2024-03-08T08:23:17;17.93;;;12.73;;
15929;SDS011;8064;51.142;4.780;2024-03-08T08:25:45;17.23;;;13.63;;
15929;SDS011;8064;51.142;4.780;2024-03-08T08:28:11;18.20;;;13.67;;
15929;SDS011;8064;51.142;4.780;2024-03-08T08:30:37;15.97;;;12.73;;
15929;SDS011;8064;51.142;4.780;2024-03-08T08:33:03;16.17;;;12.97;;
15929;SDS011;8064;51.142;4.780;2024-03-08T08:35:30;15.60;;;12.47;;
15929;SDS011;8064;51.142;4.780;2024-03-08T08:37:58;16.07;;;13.33;;
15929;SDS011;8064;51.142;4.780;2024-03-08T08:40:28;19.33;;;13.47;;
15929;SDS011;8064;51.142;4.780;2024-03-08T08:42:56;17.90;;;13.33;;
15929;SDS011;8064;51.142;4.780;2024-03-08T08:45:23;16.63;;;12.47;;
15929;SDS011;8064;51.142;4.780;2024-03-08T08:47:49;15.50;;;12.43;;
15929;SDS011;8064;51.142;4.780;2024-03-08T08:50:15;16.07;;;12.57;;
15929;SDS011;8064;51.142;4.780;2024-03-08T08:52:48;15.13;;;12.60;;
15929;SDS011;8064;51.142;4.780;2024-03-08T08:55:15;15.27;;;12.13;;
15929;SDS011;8064;51.142;4.780;2024-03-08T08:57:46;16.53;;;12.43;;
15929;SDS011;8064;51.142;4.780;2024-03-08T09:00:13;15.57;;;12.70;;
15929;SDS011;8064;51.142;4.780;2024-03-08T09:02:41;16.70;;;12.77;;
15929;SDS011;8064;51.142;4.780;2024-03-08T09:05:07;14.87;;;12.17;;
15929;SDS011;8064;51.142;4.780;2024-03-08T09:07:33;16.23;;;12.57;;
15929;SDS011;8064;51.142;4.780;2024-03-08T09:09:59;13.90;;;11.63;;
15929;SDS011;8064;51.142;4.780;2024-03-08T09:12:26;15.87;;;12.10;;
15929;SDS011;8064;51.142;4.780;2024-03-08T09:14:51;15.83;;;12.77;;
15929;SDS011;8064;51.142;4.780;2024-03-08T09:17:17;15.20;;;12.27;;
15929;SDS011;8064;51.142;4.780;2024-03-08T09:19:46;14.70;;;12.37;;
15929;SDS011;8064;51.142;4.780;2024-03-08T09:22:12;15.10;;;11.73;;
15929;SDS011;8064;51.142;4.780;2024-03-08T09:24:38;15.97;;;12.60;;
15929;SDS011;8064;51.142;4.780;2024-03-08T09:27:04;14.50;;;11.97;;
15929;SDS011;8064;51.142;4.780;2024-03-08T09:29:30;15.60;;;11.00;;
15929;SDS011;8064;51.142;4.780;2024-03-08T09:31:56;14.40;;;11.63;;
15929;SDS011;8064;51.142;4.780;2024-03-08T09:34:22;15.83;;;11.83;;
15929;SDS011;8064;51.142;4.780;2024-03-08T09:36:48;13.90;;;12.00;;
15929;SDS011;8064;51.142;4.780;2024-03-08T09:39:17;13.20;;;11.10;;
15929;SDS011;8064;51.142;4.780;2024-03-08T09:41:45;16.73;;;12.47;;
15929;SDS011;8064;51.142;4.780;2024-03-08T09:44:13;15.53;;;11.63;;
15929;SDS011;8064;51.142;4.780;2024-03-08T09:46:40;14.73;;;11.93;;
15929;SDS011;8064;51.142;4.780;2024-03-08T09:49:06;12.67;;;11.13;;
15929;SDS011;8064;51.142;4.780;2024-03-08T09:51:33;13.80;;;11.43;;
15929;SDS011;8064;51.142;4.780;2024-03-08T09:54:01;14.40;;;12.07;;
15929;SDS011;8064;51.142;4.780;2024-03-08T09:56:31;14.10;;;11.10;;
15929;SDS011;8064;51.142;4.780;2024-03-08T09:58:59;12.87;;;11.47;;
15929;SDS011;8064;51.142;4.780;2024-03-08T10:01:50;12.93;;;10.83;;
15929;SDS011;8064;51.142;4.780;2024-03-08T10:04:17;14.63;;;10.57;;
15929;SDS011;8064;51.142;4.780;2024-03-08T10:06:45;13.10;;;11.27;;
15929;SDS011;8064;51.142;4.780;2024-03-08T10:09:12;11.77;;;10.57;;
15929;SDS011;8064;51.142;4.780;2024-03-08T10:11:39;12.70;;;11.37;;
15929;SDS011;8064;51.142;4.780;2024-03-08T10:14:05;11.95;;;10.55;;
15929;SDS011;8064;51.142;4.780;2024-03-08T10:16:33;14.50;;;11.18;;
15929;SDS011;8064;51.142;4.780;2024-03-08T10:19:00;13.55;;;12.15;;
15929;SDS011;8064;51.142;4.780;2024-03-08T10:21:26;13.77;;;12.43;;
15929;SDS011;8064;51.142;4.780;2024-03-08T10:23:52;13.50;;;11.30;;
15929;SDS011;8064;51.142;4.780;2024-03-08T10:26:18;12.63;;;11.30;;
15929;SDS011;8064;51.142;4.780;2024-03-08T10:28:47;15.35;;;12.70;;
15929;SDS011;8064;51.142;4.780;2024-03-08T10:31:14;13.32;;;11.90;;
15929;SDS011;8064;51.142;4.780;2024-03-08T10:33:41;13.73;;;12.48;;
15929;SDS011;8064;51.142;4.780;2024-03-08T10:36:07;14.82;;;13.32;;
15929;SDS011;8064;51.142;4.780;2024-03-08T10:38:35;14.18;;;12.77;;
15929;SDS011;8064;51.142;4.780;2024-03-08T10:41:02;13.48;;;12.10;;
15929;SDS011;8064;51.142;4.780;2024-03-08T10:43:31;13.10;;;11.95;;
15929;SDS011;8064;51.142;4.780;2024-03-08T10:46:09;13.98;;;12.57;;
15929;SDS011;8064;51.142;4.780;2024-03-08T10:48:47;14.32;;;12.95;;
15929;SDS011;8064;51.142;4.780;2024-03-08T10:51:16;14.40;;;12.20;;
15929;SDS011;8064;51.142;4.780;2024-03-08T10:53:43;13.27;;;11.93;;
15929;SDS011;8064;51.142;4.780;2024-03-08T10:56:11;14.30;;;12.80;;
15929;SDS011;8064;51.142;4.780;2024-03-08T10:58:39;13.35;;;12.05;;
15929;SDS011;8064;51.142;4.780;2024-03-08T11:01:06;12.95;;;11.73;;
15929;SDS011;8064;51.142;4.780;2024-03-08T11:06:30;13.30;;;11.95;;
15929;SDS011;8064;51.142;4.780;2024-03-08T11:08:56;14.02;;;11.70;;
15929;SDS011;8064;51.142;4.780;2024-03-08T11:11:31;13.48;;;11.45;;
15929;SDS011;8064;51.142;4.780;2024-03-08T11:13:59;14.15;;;12.40;;
15929;SDS011;8064;51.142;4.780;2024-03-08T11:18:53;12.90;;;11.15;;
15929;SDS011;8064;51.142;4.780;2024-03-08T11:21:20;14.25;;;11.35;;
15929;SDS011;8064;51.142;4.780;2024-03-08T11:23:58;13.13;;;11.82;;
15929;SDS011;8064;51.142;4.780;2024-03-08T11:26:25;12.57;;;11.07;;
15929;SDS011;8064;51.142;4.780;2024-03-08T11:28:51;12.70;;;11.40;;
15929;SDS011;8064;51.142;4.780;2024-03-08T11:31:24;14.10;;;11.97;;
15929;SDS011;8064;51.142;4.780;2024-03-08T11:33:51;12.10;;;10.80;;
15929;SDS011;8064;51.142;4.780;2024-03-08T11:36:20;13.00;;;11.07;;
15929;SDS011;8064;51.142;4.780;2024-03-08T11:38:47;13.47;;;11.03;;
15929;SDS011;8064;51.142;4.780;2024-03-08T11:41:14;12.57;;;10.93;;
15929;SDS011;8064;51.142;4.780;2024-03-08T11:43:43;12.87;;;10.97;;
15929;SDS011;8064;51.142;4.780;2024-03-08T11:46:09;13.80;;;11.57;;
15929;SDS011;8064;51.142;4.780;2024-03-08T11:48:37;12.87;;;11.07;;
15929;SDS011;8064;51.142;4.780;2024-03-08T11:51:07;14.87;;;11.60;;
15929;SDS011;8064;51.142;4.780;2024-03-08T11:53:34;13.23;;;11.50;;
15929;SDS011;8064;51.142;4.780;2024-03-08T11:56:07;14.90;;;11.87;;
15929;SDS011;8064;51.142;4.780;2024-03-08T11:58:34;13.20;;;11.00;;
15929;SDS011;8064;51.142;4.780;2024-03-08T12:01:03;13.23;;;10.57;;
15929;SDS011;8064;51.142;4.780;2024-03-08T12:03:31;13.53;;;11.27;;
15929;SDS011;8064;51.142;4.780;2024-03-08T12:05:59;13.43;;;11.17;;
15929;SDS011;8064;51.142;4.780;2024-03-08T12:08:25;14.33;;;11.70;;
15929;SDS011;8064;51.142;4.780;2024-03-08T12:10:57;13.03;;;11.30;;
15929;SDS011;8064;51.142;4.780;2024-03-08T12:13:26;13.30;;;11.33;;
15929;SDS011;8064;51.142;4.780;2024-03-08T12:15:56;14.73;;;11.20;;
15929;SDS011;8064;51.142;4.780;2024-03-08T12:18:24;13.17;;;11.53;;
15929;SDS011;8064;51.142;4.780;2024-03-08T12:20:51;12.50;;;11.00;;
15929;SDS011;8064;51.142;4.780;2024-03-08T12:23:17;17.90;;;11.13;;
15929;SDS011;8064;51.142;4.780;2024-03-08T12:25:43;12.43;;;10.87;;
15929;SDS011;8064;51.142;4.780;2024-03-08T12:28:11;12.90;;;10.70;;
15929;SDS011;8064;51.142;4.780;2024-03-08T12:30:48;12.37;;;11.03;;
15929;SDS011;8064;51.142;4.780;2024-03-08T12:33:17;15.43;;;10.90;;
15929;SDS011;8064;51.142;4.780;2024-03-08T12:35:53;12.97;;;10.90;;
15929;SDS011;8064;51.142;4.780;2024-03-08T12:38:20;12.23;;;10.93;;
15929;SDS011;8064;51.142;4.780;2024-03-08T12:40:50;13.77;;;11.50;;
15929;SDS011;8064;51.142;4.780;2024-03-08T12:43:16;13.90;;;10.73;;
15929;SDS011;8064;51.142;4.780;2024-03-08T12:45:43;13.20;;;11.17;;
15929;SDS011;8064;51.142;4.780;2024-03-08T12:48:14;16.30;;;11.00;;
15929;SDS011;8064;51.142;4.780;2024-03-08T12:50:41;13.13;;;11.53;;
15929;SDS011;8064;51.142;4.780;2024-03-08T12:53:10;12.83;;;10.90;;
15929;SDS011;8064;51.142;4.780;2024-03-08T12:55:36;14.73;;;11.27;;
15929;SDS011;8064;51.142;4.780;2024-03-08T12:58:02;12.53;;;11.20;;
15929;SDS011;8064;51.142;4.780;2024-03-08T13:00:28;14.60;;;11.47;;
15929;SDS011;8064;51.142;4.780;2024-03-08T13:02:54;15.03;;;11.10;;
15929;SDS011;8064;51.142;4.780;2024-03-08T13:05:20;11.93;;;9.97;;
15929;SDS011;8064;51.142;4.780;2024-03-08T13:07:46;12.80;;;11.27;;
15929;SDS011;8064;51.142;4.780;2024-03-08T13:10:12;12.17;;;10.37;;
15929;SDS011;8064;51.142;4.780;2024-03-08T13:12:41;13.43;;;10.83;;
15929;SDS011;8064;51.142;4.780;2024-03-08T13:15:08;12.93;;;10.47;;
15929;SDS011;8064;51.142;4.780;2024-03-08T13:17:45;14.87;;;10.60;;
15929;SDS011;8064;51.142;4.780;2024-03-08T13:20:13;13.37;;;10.77;;
15929;SDS011;8064;51.142;4.780;2024-03-08T13:22:41;15.27;;;10.90;;
15929;SDS011;8064;51.142;4.780;2024-03-08T13:25:07;12.73;;;10.30;;
15929;SDS011;8064;51.142;4.780;2024-03-08T13:27:38;11.43;;;10.23;;
15929;SDS011;8064;51.142;4.780;2024-03-08T13:30:08;13.30;;;9.90;;
15929;SDS011;8064;51.142;4.780;2024-03-08T13:32:43;13.57;;;10.23;;
15929;SDS011;8064;51.142;4.780;2024-03-08T13:35:10;11.87;;;9.13;;
15929;SDS011;8064;51.142;4.780;2024-03-08T13:37:49;11.13;;;9.50;;
15929;SDS011;8064;51.142;4.780;2024-03-08T13:40:16;13.10;;;9.87;;
15929;SDS011;8064;51.142;4.780;2024-03-08T13:42:45;13.93;;;10.23;;
15929;SDS011;8064;51.142;4.780;2024-03-08T13:45:12;13.80;;;9.90;;
15929;SDS011;8064;51.142;4.780;2024-03-08T13:47:39;13.20;;;10.03;;
15929;SDS011;8064;51.142;4.780;2024-03-08T13:50:06;11.67;;;9.40;;
15929;SDS011;8064;51.142;4.780;2024-03-08T13:52:33;15.03;;;10.17;;
15929;SDS011;8064;51.142;4.780;2024-03-08T13:55:00;11.20;;;9.40;;
15929;SDS011;8064;51.142;4.780;2024-03-08T13:57:26;12.73;;;9.87;;
15929;SDS011;8064;51.142;4.780;2024-03-08T13:59:53;12.30;;;10.00;;
15929;SDS011;8064;51.142;4.780;2024-03-08T14:02:19;13.47;;;10.43;;
15929;SDS011;8064;51.142;4.780;2024-03-08T14:04:47;12.63;;;9.47;;
15929;SDS011;8064;51.142;4.780;2024-03-08T14:07:14;13.07;;;10.73;;
15929;SDS011;8064;51.142;4.780;2024-03-08T14:09:41;13.33;;;9.60;;
15929;SDS011;8064;51.142;4.780;2024-03-08T14:12:08;12.90;;;10.43;;
15929;SDS011;8064;51.142;4.780;2024-03-08T14:14:34;12.80;;;9.90;;
15929;SDS011;8064;51.142;4.780;2024-03-08T14:17:01;13.73;;;10.00;;
15929;SDS011;8064;51.142;4.780;2024-03-08T14:19:27;13.13;;;9.93;;
15929;SDS011;8064;51.142;4.780;2024-03-08T14:21:53;12.47;;;10.17;;
15929;SDS011;8064;51.142;4.780;2024-03-08T14:24:19;10.40;;;9.23;;
15929;SDS011;8064;51.142;4.780;2024-03-08T14:26:45;12.60;;;9.90;;
15929;SDS011;8064;51.142;4.780;2024-03-08T14:29:14;11.50;;;9.67;;
15929;SDS011;8064;51.142;4.780;2024-03-08T14:31:40;11.60;;;8.77;;
15929;SDS011;8064;51.142;4.780;2024-03-08T14:34:06;13.80;;;9.23;;
15929;SDS011;8064;51.142;4.780;2024-03-08T14:36:33;12.87;;;10.20;;
15929;SDS011;8064;51.142;4.780;2024-03-08T14:38:59;12.83;;;10.37;;
15929;SDS011;8064;51.142;4.780;2024-03-08T14:41:25;10.63;;;8.93;;